createdAt,value
2023-01-23T00:29:07.518Z,29.61
2023-01-23T00:34:29.357Z,29.77
2023-01-23T00:39:51.119Z,29.53
2023-01-23T00:45:12.958Z,29.34
2023-01-23T00:50:34.640Z,29.73
2023-01-23T00:55:56.330Z,29.50
2023-01-23T01:01:18.223Z,29.31
2023-01-23T01:06:39.924Z,29.50
2023-01-23T01:12:01.631Z,29.68
2023-01-23T01:17:23.600Z,29.24
2023-01-23T01:22:45.294Z,29.22
2023-01-23T01:28:08.126Z,29.63
2023-01-23T01:33:29.881Z,29.59
2023-01-23T01:38:51.738Z,29.63
2023-01-23T01:44:19.635Z,29.25
2023-01-23T01:49:41.426Z,29.71
2023-01-23T01:55:05.307Z,29.68
2023-01-23T02:00:27.011Z,29.83
2023-01-23T02:05:50.138Z,29.40
2023-01-23T02:11:12.122Z,29.57
2023-01-23T02:16:41.337Z,29.47
2023-01-23T02:22:24.279Z,29.49
2023-01-23T02:27:45.987Z,29.48
2023-01-23T02:33:27.850Z,29.45
2023-01-23T02:39:13.488Z,29.79
2023-01-23T02:44:35.342Z,29.52
2023-01-23T02:49:57.074Z,29.89
2023-01-23T02:55:18.877Z,29.88
2023-01-23T03:00:43.563Z,29.64
2023-01-23T03:06:06.165Z,29.87
2023-01-23T03:11:27.916Z,29.58
2023-01-23T03:16:54.133Z,29.93
2023-01-23T03:22:16.014Z,29.99
2023-01-23T03:27:37.734Z,29.79
2023-01-23T03:32:59.415Z,29.76
2023-01-23T03:38:21.156Z,29.86
2023-01-23T03:43:42.901Z,29.73
2023-01-23T03:49:04.629Z,29.31
2023-01-23T03:54:27.141Z,29.39
2023-01-23T03:59:49.045Z,29.71
2023-01-23T04:05:10.800Z,29.69
2023-01-23T04:10:32.978Z,29.45
2023-01-23T04:15:54.826Z,29.69
2023-01-23T04:21:16.641Z,29.81
2023-01-23T04:26:38.410Z,29.58
2023-01-23T04:32:00.187Z,29.68
2023-01-23T04:37:21.911Z,29.50
2023-01-23T04:42:43.581Z,29.87
2023-01-23T04:48:05.534Z,29.64
2023-01-23T04:53:27.218Z,29.54
2023-01-23T04:58:50.021Z,29.72
2023-01-23T05:04:11.891Z,29.83
2023-01-23T05:09:33.611Z,29.71
2023-01-23T05:14:55.312Z,29.84
2023-01-23T05:20:17.497Z,29.87
2023-01-23T05:25:39.466Z,29.91
2023-01-23T05:31:01.297Z,29.88
2023-01-23T05:36:23.135Z,29.51
2023-01-23T05:41:44.979Z,29.89
2023-01-23T05:47:06.638Z,29.83
2023-01-23T05:52:28.462Z,29.57
2023-01-23T05:57:50.223Z,29.79
2023-01-23T06:03:11.907Z,29.75
2023-01-23T06:08:33.669Z,29.72
2023-01-23T06:13:55.664Z,29.53
2023-01-23T06:19:17.373Z,29.88
2023-01-23T06:24:39.273Z,29.67
2023-01-23T06:30:01.015Z,29.33
2023-01-23T06:35:23.112Z,29.65
2023-01-23T06:40:45.217Z,29.58
2023-01-23T06:46:11.025Z,29.57
2023-01-23T06:51:33.428Z,29.87
2023-01-23T06:56:55.140Z,29.48
2023-01-23T07:02:16.942Z,29.78
2023-01-23T07:07:38.697Z,29.56
2023-01-23T07:13:00.396Z,29.59
2023-01-23T07:18:23.249Z,29.51
2023-01-23T07:23:44.936Z,29.94
2023-01-23T07:29:09.020Z,29.72
2023-01-23T07:34:30.755Z,29.89
2023-01-23T07:39:52.623Z,29.59
2023-01-23T07:45:14.756Z,29.72
2023-01-23T07:50:38.208Z,29.85
2023-01-23T07:56:00.221Z,29.63
2023-01-23T08:01:22.047Z,29.63
2023-01-23T08:06:43.897Z,29.53
2023-01-23T08:12:05.875Z,29.65
2023-01-23T08:17:27.608Z,29.93
2023-01-23T08:22:49.332Z,29.87
2023-01-23T08:28:11.064Z,30.04
2023-01-23T08:33:34.449Z,29.87
2023-01-23T08:38:56.317Z,29.98
2023-01-23T08:44:18.073Z,29.97
2023-01-23T08:49:39.786Z,30.01
2023-01-23T08:55:01.543Z,29.65
2023-01-23T09:00:23.432Z,29.81
2023-01-23T09:05:45.107Z,29.55
2023-01-23T09:11:08.670Z,29.16
2023-01-23T09:16:30.411Z,29.27
2023-01-23T09:21:57.091Z,28.76
2023-01-23T09:27:19.525Z,29.02
2023-01-23T09:32:41.261Z,29.02
2023-01-23T09:38:07.233Z,29.03
2023-01-23T09:43:42.605Z,29.27
2023-01-23T09:49:27.166Z,29.08
2023-01-23T09:54:53.387Z,29.03
2023-01-23T10:00:24.306Z,29.23
2023-01-23T10:06:07.407Z,29.51
2023-01-23T10:11:37.853Z,29.23
2023-01-23T10:17:24.265Z,29.37
2023-01-23T10:23:05.938Z,29.36
2023-01-23T10:28:39.526Z,29.66
2023-01-23T10:34:10.863Z,29.61
2023-01-23T10:39:56.064Z,29.66
2023-01-23T10:45:21.394Z,29.44
2023-01-23T10:50:43.367Z,29.55
2023-01-23T10:56:05.354Z,29.89
2023-01-23T11:01:31.657Z,29.54
2023-01-23T11:07:05.135Z,29.68
2023-01-23T11:12:29.438Z,29.74
2023-01-23T11:17:53.491Z,30.02
2023-01-23T11:23:18.140Z,29.74
2023-01-23T11:28:51.180Z,29.77
2023-01-23T11:34:14.970Z,30.01
2023-01-23T11:39:49.994Z,29.72
2023-01-23T11:45:31.197Z,29.58
2023-01-23T11:51:13.113Z,29.12
2023-01-23T11:56:53.404Z,28.97
2023-01-23T12:02:46.630Z,28.74
2023-01-23T12:08:57.295Z,28.94
2023-01-23T12:14:34.195Z,28.74
2023-01-23T12:20:24.957Z,29.18
2023-01-23T12:26:07.112Z,29.36
2023-01-23T12:31:51.723Z,29.00
2023-01-23T12:37:35.561Z,29.21
2023-01-23T12:43:04.227Z,29.49
2023-01-23T12:48:58.725Z,29.24
2023-01-23T12:54:31.631Z,29.42
2023-01-23T13:00:01.872Z,29.40
2023-01-23T13:05:40.237Z,29.67
2023-01-23T13:11:26.738Z,29.43
2023-01-23T13:16:50.502Z,29.67
2023-01-23T13:22:29.317Z,29.84
2023-01-23T13:28:01.022Z,30.07
2023-01-23T13:33:28.965Z,29.88
2023-01-23T13:39:00.608Z,30.04
2023-01-23T13:44:35.802Z,29.90
2023-01-23T14:24:47.737Z,29.83
2023-01-23T14:30:18.632Z,29.80
2023-01-23T14:35:42.834Z,30.04
2023-01-23T14:41:07.424Z,29.83
2023-01-23T14:46:40.396Z,29.94
2023-01-23T14:52:04.777Z,29.44
2023-01-23T14:57:27.838Z,29.46
2023-01-23T15:02:54.596Z,29.88
2023-01-23T15:08:33.211Z,29.50
2023-01-23T15:14:01.690Z,29.94
2023-01-23T15:19:25.283Z,29.68
2023-01-23T15:24:47.761Z,29.91
2023-01-23T15:30:28.943Z,29.85
2023-01-23T15:35:50.931Z,30.07
2023-01-23T15:41:12.654Z,30.22
2023-01-23T15:46:34.399Z,30.29
2023-01-23T15:51:58.878Z,29.84
2023-01-23T15:57:20.969Z,30.14
2023-01-23T16:02:55.181Z,30.02
2023-01-23T16:08:23.262Z,30.03
2023-01-23T16:13:45.202Z,29.92
2023-01-23T16:19:06.912Z,29.98
2023-01-23T16:24:30.172Z,30.00
2023-01-23T16:29:51.898Z,29.70
2023-01-23T16:35:15.047Z,29.72
2023-01-23T16:40:36.785Z,30.04
2023-01-23T16:45:58.668Z,29.67
2023-01-23T16:51:24.975Z,29.79
2023-01-23T16:56:51.025Z,29.69
2023-01-23T17:02:31.232Z,29.77
2023-01-23T17:07:53.191Z,29.71
2023-01-23T17:13:17.023Z,29.52
2023-01-23T17:18:39.116Z,29.94
2023-01-23T17:24:01.071Z,30.04
2023-01-23T17:29:23.184Z,29.57
2023-01-23T17:34:50.330Z,29.76
2023-01-23T17:40:14.711Z,29.88
2023-01-23T17:45:36.538Z,29.65
2023-01-23T17:50:59.336Z,29.08
2023-01-23T17:56:21.189Z,28.94
2023-01-23T18:01:43.194Z,28.88
2023-01-23T18:07:04.986Z,28.32
2023-01-23T18:12:46.896Z,28.10
2023-01-23T18:18:34.337Z,27.94
2023-01-23T18:23:56.535Z,28.20
2023-01-23T18:29:33.703Z,28.19
2023-01-23T18:35:14.125Z,28.18
2023-01-23T18:41:09.387Z,28.59
2023-01-23T18:46:31.354Z,29.08
2023-01-23T18:52:19.624Z,29.35
2023-01-23T18:58:03.660Z,29.39
2023-01-23T19:03:38.944Z,28.82
2023-01-23T19:09:00.879Z,28.81
2023-01-23T19:14:51.422Z,28.79
2023-01-23T19:20:36.335Z,28.63
2023-01-23T19:25:58.331Z,28.17
2023-01-23T19:31:23.894Z,28.32
2023-01-23T19:36:45.909Z,27.99
2023-01-23T19:42:14.192Z,28.09
2023-01-23T19:47:35.911Z,27.54
2023-01-23T19:52:58.814Z,27.39
2023-01-23T19:58:20.478Z,27.65
2023-01-23T20:03:42.187Z,27.41
2023-01-23T20:09:03.854Z,27.79
2023-01-23T20:14:25.942Z,28.05
2023-01-23T20:19:48.246Z,28.02
2023-01-23T20:25:15.541Z,28.40
2023-01-23T20:30:37.508Z,28.18
2023-01-23T20:35:59.922Z,28.38
2023-01-23T20:41:22.157Z,27.96
2023-01-23T20:46:44.033Z,28.34
2023-01-23T20:52:24.531Z,27.92
2023-01-23T20:58:05.066Z,28.07
2023-01-23T21:03:26.745Z,28.02
2023-01-23T21:08:48.469Z,28.25
2023-01-23T21:14:10.211Z,28.73
2023-01-23T21:19:33.074Z,28.59
2023-01-23T21:24:54.817Z,28.97
2023-01-23T21:30:17.102Z,29.36
2023-01-23T21:35:39.089Z,29.29
2023-01-23T21:41:00.921Z,29.42
2023-01-23T21:46:23.062Z,29.77
2023-01-23T21:51:45.298Z,29.99
2023-01-23T21:57:07.067Z,29.96
2023-01-23T22:02:28.787Z,29.79
2023-01-23T22:07:50.766Z,30.20
2023-01-23T22:13:12.465Z,29.93
2023-01-23T22:18:34.232Z,30.37
2023-01-23T22:23:56.074Z,30.48
2023-01-23T22:29:18.105Z,30.33
2023-01-23T22:34:39.782Z,30.37
2023-01-23T22:40:01.477Z,30.32
2023-01-23T22:45:23.879Z,30.35
2023-01-23T22:50:46.095Z,30.38
2023-01-23T22:56:08.504Z,30.29
2023-01-23T23:01:30.403Z,30.10
2023-01-23T23:06:52.159Z,30.25
2023-01-23T23:12:13.888Z,30.06
2023-01-23T23:17:35.640Z,30.54
2023-01-23T23:22:57.783Z,30.24
2023-01-23T23:28:19.603Z,30.11
2023-01-23T23:33:41.338Z,30.43
2023-01-23T23:39:03.071Z,30.18
2023-01-23T23:44:24.806Z,30.29
2023-01-23T23:49:46.534Z,30.21
2023-01-23T23:55:08.679Z,30.43
